Time;durP1;ratioP1;P1;durP2;ratioP2;P2;SDS_P1;SDS_P2;PMS_P1;PMS_P2;Temp;Humidity;BMP_temperature;BMP_pressure;BME280_temperature;BME280_humidity;BME280_pressure;Samples;Min_cycle;Max_cycle;Signal;HPM_P1;HPM_P2
2021/01/14 00:00:33;;;;;;;;;;;12.00;63.00;;;;;;2092251;28;1325;-54
2021/01/14 00:01:52;;;;;;;;;;;12.10;63.20;;;;;;2099112;28;752;-52
2021/01/14 00:03:12;;;;;;;;;;;12.10;63.20;;;;;;2099236;28;774;-53
2021/01/14 00:04:31;;;;;;;;;;;12.00;63.10;;;;;;2086022;28;988;-53
2021/01/14 00:05:50;;;;;;;;;;;12.00;63.20;;;;;;2082573;28;940;-54
2021/01/14 00:07:10;;;;;;;;;;;12.00;63.20;;;;;;2090201;28;1043;-53
2021/01/14 00:08:29;;;;;;;;;;;12.00;63.30;;;;;;2090746;28;726;-53
2021/01/14 00:09:48;;;;;;;;;;;12.00;63.30;;;;;;2082165;28;744;-54
2021/01/14 00:11:07;;;;;;;;;;;12.00;63.40;;;;;;2087155;28;1353;-53
2021/01/14 00:12:27;;;;;;;;;;;12.00;63.30;;;;;;2090615;28;721;-53
2021/01/14 00:13:46;;;;;;;;;;;12.00;62.90;;;;;;2090912;28;769;-53
2021/01/14 00:15:05;;;;;;;;;;;12.00;62.90;;;;;;2097771;28;713;-52
2021/01/14 00:16:24;;;;;;;;;;;12.00;62.80;;;;;;2085299;28;719;-52
2021/01/14 00:17:44;;;;;;;;;;;12.00;62.80;;;;;;2087127;28;724;-54
2021/01/14 00:19:04;;;;;;;;;;;12.00;62.80;;;;;;2098403;28;732;-55
2021/01/14 00:20:23;;;;;;;;;;;12.00;63.50;;;;;;2093274;28;731;-54
2021/01/14 00:21:42;;;;;;;;;;;12.00;62.70;;;;;;2090712;28;697;-53
2021/01/14 00:23:01;;;;;;;;;;;12.00;62.70;;;;;;2081866;28;780;-54
2021/01/14 00:24:21;;;;;;;;;;;12.00;62.60;;;;;;2078391;28;767;-54
2021/01/14 00:25:40;;;;;;;;;;;12.00;62.50;;;;;;2086346;28;721;-54
2021/01/14 00:26:59;;;;;;;;;;;12.00;62.50;;;;;;2090730;28;775;-54
2021/01/14 00:28:19;;;;;;;;;;;12.10;62.50;;;;;;2081691;28;730;-52
2021/01/14 00:29:38;;;;;;;;;;;12.10;62.40;;;;;;2086923;28;711;-54
2021/01/14 00:30:57;;;;;;;;;;;12.00;62.30;;;;;;2090477;28;1474;-54
2021/01/14 00:32:16;;;;;;;;;;;12.00;62.20;;;;;;2081688;28;794;-53
2021/01/14 00:33:35;;;;;;;;;;;12.10;62.30;;;;;;2087236;28;730;-53
2021/01/14 00:34:55;;;;;;;;;;;12.00;62.20;;;;;;2093965;28;1134;-53
2021/01/14 00:36:14;;;;;;;;;;;12.00;62.90;;;;;;2082725;28;1007;-53
2021/01/14 00:37:51;;;;;;;;;;;12.00;62.20;;;;;;2086600;28;1966;-52
2021/01/14 00:39:11;;;;;;;;;;;12.00;62.80;;;;;;2090722;28;719;-53
2021/01/14 00:40:31;;;;;;;;;;;12.00;62.20;;;;;;2090325;28;1471;-54
2021/01/14 00:41:50;;;;;;;;;;;12.00;62.20;;;;;;2073534;28;748;-52
2021/01/14 00:43:09;;;;;;;;;;;12.10;62.20;;;;;;2078565;28;746;-54
2021/01/14 00:44:29;;;;;;;;;;;12.00;62.20;;;;;;2092380;28;1316;-53
2021/01/14 00:45:48;;;;;;;;;;;12.00;62.20;;;;;;2090070;28;726;-54
2021/01/14 00:47:07;;;;;;;;;;;12.00;62.20;;;;;;2095189;28;1037;-55
2021/01/14 00:48:26;;;;;;;;;;;12.00;62.20;;;;;;2098725;28;748;-53
2021/01/14 00:49:45;;;;;;;;;;;12.10;62.30;;;;;;2098901;28;730;-54
2021/01/14 00:51:05;;;;;;;;;;;12.00;63.00;;;;;;2098368;28;1306;-53
2021/01/14 00:52:24;;;;;;;;;;;12.00;62.10;;;;;;2097259;28;747;-54
2021/01/14 00:53:43;;;;;;;;;;;12.00;62.90;;;;;;2083481;28;788;-53
2021/01/14 00:55:02;;;;;;;;;;;12.00;62.20;;;;;;2088829;28;773;-55
2021/01/14 00:56:29;;;;;;;;;;;12.10;62.30;;;;;;2094071;28;803;-54
2021/01/14 00:57:48;;;;;;;;;;;12.00;62.20;;;;;;2094547;28;766;-55
2021/01/14 00:59:07;;;;;;;;;;;12.00;62.20;;;;;;2093665;28;795;-54
2021/01/14 01:00:26;;;;;;;;;;;12.00;62.30;;;;;;2092836;28;1364;-54
2021/01/14 01:01:45;;;;;;;;;;;12.00;62.30;;;;;;2083577;28;825;-54
2021/01/14 01:03:04;;;;;;;;;;;12.00;62.30;;;;;;2089625;28;786;-53
2021/01/14 01:04:23;;;;;;;;;;;12.00;63.00;;;;;;2090424;28;808;-53
2021/01/14 01:05:42;;;;;;;;;;;12.00;62.30;;;;;;2084839;28;1000;-53
2021/01/14 01:07:02;;;;;;;;;;;12.00;62.40;;;;;;2088372;28;1140;-54
2021/01/14 01:08:21;;;;;;;;;;;12.00;62.30;;;;;;2084012;28;742;-54
2021/01/14 01:09:40;;;;;;;;;;;12.00;62.40;;;;;;2077215;28;745;-54
2021/01/14 01:10:59;;;;;;;;;;;12.00;62.40;;;;;;2087557;28;1274;-53
2021/01/14 01:12:19;;;;;;;;;;;12.00;62.40;;;;;;2087869;28;773;-54
2021/01/14 01:13:38;;;;;;;;;;;12.00;62.40;;;;;;2076009;28;750;-53
2021/01/14 01:14:57;;;;;;;;;;;12.00;62.40;;;;;;2074612;28;769;-54
2021/01/14 01:16:16;;;;;;;;;;;12.00;62.40;;;;;;2094560;28;718;-54
2021/01/14 01:17:36;;;;;;;;;;;12.00;62.50;;;;;;2084199;28;1965;-54
2021/01/14 01:18:55;;;;;;;;;;;12.00;62.40;;;;;;2086964;28;731;-54
2021/01/14 01:20:14;;;;;;;;;;;12.00;62.50;;;;;;2090166;28;779;-54
2021/01/14 01:21:33;;;;;;;;;;;11.90;62.30;;;;;;2081633;28;762;-53
2021/01/14 01:22:54;;;;;;;;;;;12.00;62.50;;;;;;2094372;28;787;-54
2021/01/14 01:24:14;;;;;;;;;;;11.90;62.50;;;;;;2092917;28;738;-54
2021/01/14 01:25:33;;;;;;;;;;;11.90;62.50;;;;;;2080840;28;730;-54
2021/01/14 01:26:52;;;;;;;;;;;11.90;62.50;;;;;;2078320;28;788;-53
2021/01/14 01:28:12;;;;;;;;;;;11.90;62.50;;;;;;2094824;28;787;-54
2021/01/14 01:29:31;;;;;;;;;;;11.90;62.50;;;;;;2084685;28;728;-54
2021/01/14 01:30:50;;;;;;;;;;;11.90;62.50;;;;;;2078044;28;1364;-54
2021/01/14 01:32:09;;;;;;;;;;;11.90;62.50;;;;;;2086795;28;738;-53
2021/01/14 01:33:28;;;;;;;;;;;12.00;62.60;;;;;;2090405;28;721;-53
2021/01/14 01:34:47;;;;;;;;;;;11.90;62.50;;;;;;2083507;28;1107;-53
2021/01/14 01:36:07;;;;;;;;;;;11.90;62.50;;;;;;2089092;28;1155;-53
2021/01/14 01:37:26;;;;;;;;;;;11.90;62.60;;;;;;2083626;28;1906;-54
2021/01/14 01:38:45;;;;;;;;;;;11.90;63.30;;;;;;2086482;28;719;-54
2021/01/14 01:40:04;;;;;;;;;;;11.90;63.30;;;;;;2081140;28;737;-53
2021/01/14 01:41:24;;;;;;;;;;;11.90;62.60;;;;;;2086412;28;1501;-55
2021/01/14 01:42:43;;;;;;;;;;;11.90;62.70;;;;;;2089961;28;774;-53
2021/01/14 01:44:02;;;;;;;;;;;11.90;62.60;;;;;;2090066;28;732;-55
2021/01/14 01:45:21;;;;;;;;;;;11.90;62.70;;;;;;2089321;28;731;-54
2021/01/14 01:46:40;;;;;;;;;;;11.90;62.70;;;;;;2081113;28;786;-54
2021/01/14 01:48:00;;;;;;;;;;;11.90;62.70;;;;;;2078097;28;786;-54
2021/01/14 01:49:19;;;;;;;;;;;11.90;62.80;;;;;;2086494;28;796;-54
2021/01/14 01:50:39;;;;;;;;;;;11.90;62.70;;;;;;2080864;28;1328;-54
2021/01/14 01:51:57;;;;;;;;;;;11.90;62.80;;;;;;2094309;28;722;-54
2021/01/14 01:53:17;;;;;;;;;;;11.90;62.80;;;;;;2084483;28;796;-54
2021/01/14 01:54:36;;;;;;;;;;;11.90;62.70;;;;;;2094489;28;796;-55
2021/01/14 01:55:55;;;;;;;;;;;11.90;63.60;;;;;;2093129;28;728;-54
2021/01/14 01:57:14;;;;;;;;;;;11.90;62.80;;;;;;2072669;28;1926;-55
2021/01/14 01:58:34;;;;;;;;;;;11.90;63.60;;;;;;2066468;28;739;-53
2021/01/14 01:59:53;;;;;;;;;;;11.90;62.80;;;;;;2069796;28;706;-53
2021/01/14 02:01:12;;;;;;;;;;;11.90;62.80;;;;;;2083288;28;1384;-52
2021/01/14 02:02:31;;;;;;;;;;;11.80;62.80;;;;;;2097824;28;726;-54
2021/01/14 02:03:51;;;;;;;;;;;11.80;62.80;;;;;;2092704;28;787;-54
2021/01/14 02:05:10;;;;;;;;;;;11.80;62.80;;;;;;2093562;28;1080;-55
2021/01/14 02:06:30;;;;;;;;;;;11.80;62.80;;;;;;2090449;28;1029;-54
2021/01/14 02:07:49;;;;;;;;;;;11.80;62.80;;;;;;2098116;28;711;-52
2021/01/14 02:09:08;;;;;;;;;;;11.80;62.80;;;;;;2098320;28;770;-55
2021/01/14 02:10:29;;;;;;;;;;;11.80;62.90;;;;;;2089012;28;1389;-54
2021/01/14 02:11:50;;;;;;;;;;;11.80;62.90;;;;;;2103009;28;939;-55
2021/01/14 02:13:12;;;;;;;;;;;11.80;63.70;;;;;;2092341;28;799;-54
2021/01/14 02:14:32;;;;;;;;;;;11.80;62.90;;;;;;2103212;28;798;-54
2021/01/14 02:15:51;;;;;;;;;;;11.80;63.00;;;;;;2092428;28;799;-54
2021/01/14 02:17:10;;;;;;;;;;;11.80;63.00;;;;;;2102617;28;1914;-54
2021/01/14 02:18:29;;;;;;;;;;;11.80;63.00;;;;;;2082554;28;888;-54
2021/01/14 02:19:49;;;;;;;;;;;11.80;63.00;;;;;;2086287;28;1063;-53
2021/01/14 02:21:09;;;;;;;;;;;11.80;63.00;;;;;;2080632;28;1443;-54
2021/01/14 02:22:29;;;;;;;;;;;11.80;63.00;;;;;;2086227;28;800;-55
2021/01/14 02:23:51;;;;;;;;;;;11.80;63.10;;;;;;2089714;28;814;-54
2021/01/14 02:25:14;;;;;;;;;;;11.80;63.80;;;;;;2080113;28;820;-54
2021/01/14 02:26:33;;;;;;;;;;;11.80;63.10;;;;;;2086642;28;768;-52
2021/01/14 02:27:52;;;;;;;;;;;11.80;63.20;;;;;;2080877;28;698;-52
2021/01/14 02:29:11;;;;;;;;;;;11.80;63.30;;;;;;2094099;28;818;-53
2021/01/14 02:30:31;;;;;;;;;;;11.80;63.40;;;;;;2075719;28;1515;-52
2021/01/14 02:31:50;;;;;;;;;;;11.80;63.50;;;;;;2091152;28;707;-53
2021/01/14 02:33:12;;;;;;;;;;;11.80;63.50;;;;;;2084047;28;793;-53
2021/01/14 02:34:31;;;;;;;;;;;11.80;63.30;;;;;;2087697;28;1052;-52
2021/01/14 02:35:50;;;;;;;;;;;11.90;63.20;;;;;;2094189;28;1058;-52
2021/01/14 02:37:10;;;;;;;;;;;11.90;63.00;;;;;;2095744;28;1971;-52
2021/01/14 02:38:29;;;;;;;;;;;12.00;62.80;;;;;;2089364;28;717;-52
2021/01/14 02:39:49;;;;;;;;;;;12.00;62.50;;;;;;2090952;28;1240;-55
2021/01/14 02:41:08;;;;;;;;;;;12.10;62.30;;;;;;2097789;28;1376;-54
2021/01/14 02:42:27;;;;;;;;;;;12.10;61.90;;;;;;2089195;28;764;-54
2021/01/14 02:43:47;;;;;;;;;;;12.20;61.60;;;;;;2102444;28;769;-54
2021/01/14 02:45:07;;;;;;;;;;;12.20;61.30;;;;;;2099918;28;760;-54
2021/01/14 02:46:26;;;;;;;;;;;12.30;61.00;;;;;;2089357;28;715;-55
2021/01/14 02:47:45;;;;;;;;;;;12.30;61.50;;;;;;2094520;28;766;-54
2021/01/14 02:49:06;;;;;;;;;;;12.40;61.20;;;;;;2081053;28;719;-53
2021/01/14 02:50:25;;;;;;;;;;;12.50;60.20;;;;;;2086101;28;717;-53
2021/01/14 02:51:47;;;;;;;;;;;12.50;59.90;;;;;;2088328;28;798;-54
2021/01/14 02:53:06;;;;;;;;;;;12.60;59.80;;;;;;2094863;28;741;-55
2021/01/14 02:54:26;;;;;;;;;;;12.60;59.50;;;;;;2089310;28;737;-53
2021/01/14 02:55:45;;;;;;;;;;;12.70;59.40;;;;;;2094276;28;766;-55
2021/01/14 02:57:04;;;;;;;;;;;12.70;59.20;;;;;;2088737;28;1906;-56
2021/01/14 02:58:23;;;;;;;;;;;12.80;59.10;;;;;;2083850;28;1348;-54
2021/01/14 02:59:44;;;;;;;;;;;12.90;58.90;;;;;;2096934;28;1065;-55
2021/01/14 03:01:02;;;;;;;;;;;12.90;58.60;;;;;;2097774;28;1430;-55
2021/01/14 03:02:22;;;;;;;;;;;12.90;59.00;;;;;;2097488;28;1071;-54
2021/01/14 03:03:41;;;;;;;;;;;13.00;58.30;;;;;;2094497;28;895;-58
2021/01/14 03:05:00;;;;;;;;;;;13.10;58.10;;;;;;2087983;28;1365;-56
2021/01/14 03:06:19;;;;;;;;;;;13.10;58.00;;;;;;2090048;28;916;-58
2021/01/14 03:07:39;;;;;;;;;;;13.10;57.90;;;;;;2077990;28;2228;-55
2021/01/14 03:08:58;;;;;;;;;;;13.20;57.80;;;;;;2081642;28;802;-57
2021/01/14 03:10:17;;;;;;;;;;;13.20;57.70;;;;;;2092673;28;1028;-54
2021/01/14 03:11:37;;;;;;;;;;;13.20;57.70;;;;;;2093791;28;850;-58
2021/01/14 03:12:56;;;;;;;;;;;13.10;57.70;;;;;;2092749;28;1213;-53
2021/01/14 03:14:15;;;;;;;;;;;13.10;57.70;;;;;;2088492;28;1136;-52
2021/01/14 03:15:34;;;;;;;;;;;13.10;57.80;;;;;;2087687;28;1312;-52
2021/01/14 03:16:53;;;;;;;;;;;13.10;57.80;;;;;;2080587;28;1902;-52
2021/01/14 03:18:12;;;;;;;;;;;13.10;58.40;;;;;;2092324;28;1238;-54
2021/01/14 03:19:32;;;;;;;;;;;13.10;58.00;;;;;;2096919;28;1230;-55
2021/01/14 03:20:51;;;;;;;;;;;13.00;58.60;;;;;;2082581;28;1423;-55
2021/01/14 03:22:10;;;;;;;;;;;13.00;58.10;;;;;;2085325;28;1316;-52
2021/01/14 03:23:30;;;;;;;;;;;13.00;58.20;;;;;;2092371;28;1253;-52
2021/01/14 03:24:49;;;;;;;;;;;13.00;58.30;;;;;;2090592;28;1233;-52
2021/01/14 03:26:10;;;;;;;;;;;13.00;58.30;;;;;;2097413;28;1077;-53
2021/01/14 03:27:29;;;;;;;;;;;12.90;58.40;;;;;;2097493;28;1178;-52
2021/01/14 03:28:49;;;;;;;;;;;12.90;58.50;;;;;;2097079;28;1409;-53
2021/01/14 03:30:09;;;;;;;;;;;12.90;58.50;;;;;;2084360;28;1368;-56
2021/01/14 03:31:28;;;;;;;;;;;12.90;58.60;;;;;;2086805;28;1339;-52
2021/01/14 03:32:47;;;;;;;;;;;12.90;58.80;;;;;;2085318;28;1234;-52
2021/01/14 03:34:06;;;;;;;;;;;12.90;59.30;;;;;;2103243;28;1339;-52
2021/01/14 03:35:25;;;;;;;;;;;12.80;58.80;;;;;;2096592;28;1184;-53
2021/01/14 03:36:57;;;;;;;;;;;12.80;59.40;;;;;;2087441;28;1913;-52
2021/01/14 03:38:16;;;;;;;;;;;12.80;59.00;;;;;;2097355;28;1251;-52
2021/01/14 03:39:35;;;;;;;;;;;12.80;59.10;;;;;;2099042;28;1284;-53
2021/01/14 03:40:54;;;;;;;;;;;12.80;59.20;;;;;;2088159;28;1393;-54
2021/01/14 03:42:15;;;;;;;;;;;12.70;59.30;;;;;;2095396;28;1176;-54
2021/01/14 03:43:34;;;;;;;;;;;12.70;59.30;;;;;;2086489;28;1389;-52
2021/01/14 03:44:53;;;;;;;;;;;12.70;59.40;;;;;;2093383;28;1462;-54
2021/01/14 03:46:16;;;;;;;;;;;12.70;59.50;;;;;;2098369;28;1774;-54
2021/01/14 03:47:36;;;;;;;;;;;12.70;59.60;;;;;;2098122;28;1229;-54
2021/01/14 03:48:55;;;;;;;;;;;12.70;59.60;;;;;;2098719;28;1337;-55
2021/01/14 03:50:14;;;;;;;;;;;12.60;59.70;;;;;;2098788;28;1106;-53
2021/01/14 03:51:33;;;;;;;;;;;12.60;60.40;;;;;;2095527;28;1393;-53
2021/01/14 03:52:52;;;;;;;;;;;12.60;59.80;;;;;;2089536;28;1350;-54
2021/01/14 03:54:12;;;;;;;;;;;12.60;60.60;;;;;;2092071;28;1199;-52
2021/01/14 03:55:31;;;;;;;;;;;12.60;60.00;;;;;;2078052;28;1310;-54
2021/01/14 03:56:50;;;;;;;;;;;12.60;60.10;;;;;;2082351;28;1914;-53
2021/01/14 03:58:10;;;;;;;;;;;12.60;60.10;;;;;;2097681;28;1355;-54
2021/01/14 03:59:30;;;;;;;;;;;12.50;60.10;;;;;;2088594;28;1467;-54
2021/01/14 04:00:49;;;;;;;;;;;12.50;60.20;;;;;;2086251;28;1412;-54
2021/01/14 04:02:08;;;;;;;;;;;12.50;60.30;;;;;;2095228;28;1330;-54
2021/01/14 04:03:27;;;;;;;;;;;12.50;60.50;;;;;;2098431;28;1258;-54
2021/01/14 04:04:47;;;;;;;;;;;12.50;60.60;;;;;;2094780;28;1253;-55
2021/01/14 04:06:06;;;;;;;;;;;12.50;60.70;;;;;;2098411;28;1424;-55
2021/01/14 04:07:25;;;;;;;;;;;12.50;60.80;;;;;;2098642;28;1296;-52
2021/01/14 04:08:44;;;;;;;;;;;12.40;60.80;;;;;;2093601;28;1230;-53
2021/01/14 04:10:04;;;;;;;;;;;12.50;60.90;;;;;;2106349;28;1530;-52
2021/01/14 04:11:23;;;;;;;;;;;12.40;61.00;;;;;;2101345;28;1399;-52
2021/01/14 04:12:42;;;;;;;;;;;12.40;61.00;;;;;;2081752;28;1162;-54
2021/01/14 04:14:01;;;;;;;;;;;12.40;61.10;;;;;;2086527;28;893;-54
2021/01/14 04:15:21;;;;;;;;;;;12.40;61.10;;;;;;2094303;28;1087;-55
2021/01/14 04:16:40;;;;;;;;;;;12.40;61.20;;;;;;2086437;28;1056;-54
2021/01/14 04:17:59;;;;;;;;;;;12.40;61.30;;;;;;2094794;28;1013;-55
2021/01/14 04:19:19;;;;;;;;;;;12.30;61.30;;;;;;2098751;28;1158;-54
2021/01/14 04:20:38;;;;;;;;;;;12.30;61.30;;;;;;2079720;28;1450;-54
2021/01/14 04:21:57;;;;;;;;;;;12.30;61.40;;;;;;2091827;28;1436;-54
2021/01/14 04:23:16;;;;;;;;;;;12.30;61.60;;;;;;2098566;28;919;-53
2021/01/14 04:24:38;;;;;;;;;;;12.30;61.50;;;;;;2097788;28;1145;-54
2021/01/14 04:25:58;;;;;;;;;;;12.30;61.60;;;;;;2095610;28;1400;-54
2021/01/14 04:27:17;;;;;;;;;;;12.30;61.70;;;;;;2101429;28;1345;-53
2021/01/14 04:28:36;;;;;;;;;;;12.30;61.80;;;;;;2092900;28;1239;-54
2021/01/14 04:29:55;;;;;;;;;;;12.30;61.80;;;;;;2081729;28;1093;-53
2021/01/14 04:31:14;;;;;;;;;;;12.30;61.90;;;;;;2095000;28;1546;-53
2021/01/14 04:32:33;;;;;;;;;;;12.30;61.90;;;;;;2098620;28;1287;-54
2021/01/14 04:33:53;;;;;;;;;;;12.20;61.90;;;;;;2092846;28;1164;-54
2021/01/14 04:35:12;;;;;;;;;;;12.30;62.10;;;;;;2097632;28;1451;-52
2021/01/14 04:36:31;;;;;;;;;;;12.20;62.00;;;;;;2106016;28;1023;-53
2021/01/14 04:37:50;;;;;;;;;;;12.20;62.00;;;;;;2092676;28;1438;-52
2021/01/14 04:39:10;;;;;;;;;;;12.20;62.20;;;;;;2098673;28;1439;-53
2021/01/14 04:40:29;;;;;;;;;;;12.20;62.10;;;;;;2094515;28;1440;-53
2021/01/14 04:41:48;;;;;;;;;;;12.20;62.90;;;;;;2089148;28;951;-55
2021/01/14 04:43:07;;;;;;;;;;;12.20;63.00;;;;;;2088139;28;1228;-52
2021/01/14 04:44:26;;;;;;;;;;;12.20;63.00;;;;;;2087707;28;964;-53
2021/01/14 04:45:46;;;;;;;;;;;12.20;62.40;;;;;;2082109;28;954;-52
2021/01/14 04:47:15;;;;;;;;;;;12.10;62.40;;;;;;2086522;28;1517;-53
2021/01/14 04:48:34;;;;;;;;;;;12.10;62.40;;;;;;2095126;28;1415;-54
2021/01/14 04:49:56;;;;;;;;;;;12.10;63.20;;;;;;2084149;28;1280;-54
2021/01/14 04:51:16;;;;;;;;;;;12.10;63.20;;;;;;2094075;28;1424;-55
2021/01/14 04:52:36;;;;;;;;;;;12.10;62.50;;;;;;2092374;28;1105;-54
2021/01/14 04:53:58;;;;;;;;;;;12.10;62.60;;;;;;2094435;28;1078;-53
2021/01/14 04:55:17;;;;;;;;;;;12.10;62.60;;;;;;2096899;28;1191;-56
2021/01/14 04:56:36;;;;;;;;;;;12.10;62.90;;;;;;2081750;28;729;-55
2021/01/14 04:57:56;;;;;;;;;;;12.10;63.70;;;;;;2099010;28;1470;-53
2021/01/14 04:59:15;;;;;;;;;;;12.10;64.50;;;;;;2093266;28;1138;-56
2021/01/14 05:00:34;;;;;;;;;;;12.10;64.90;;;;;;2096094;28;1522;-54
2021/01/14 05:01:55;;;;;;;;;;;12.20;66.10;;;;;;2091385;28;783;-52
2021/01/14 05:03:24;;;;;;;;;;;12.10;65.60;;;;;;2089031;28;800;-51
2021/01/14 05:04:43;;;;;;;;;;;12.10;65.10;;;;;;2080425;28;1052;-53
2021/01/14 05:06:03;;;;;;;;;;;12.10;65.20;;;;;;2092360;28;1336;-54
2021/01/14 05:07:26;;;;;;;;;;;12.10;64.60;;;;;;2091966;28;1212;-53
2021/01/14 05:08:45;;;;;;;;;;;12.10;64.50;;;;;;2089894;28;1363;-53
2021/01/14 05:10:05;;;;;;;;;;;12.10;64.50;;;;;;2088597;28;1332;-53
2021/01/14 05:11:25;;;;;;;;;;;12.10;64.50;;;;;;2092644;28;1406;-54
2021/01/14 05:12:44;;;;;;;;;;;12.10;64.20;;;;;;2079520;28;1438;-53
2021/01/14 05:14:03;;;;;;;;;;;12.20;64.20;;;;;;2072395;28;1257;-53
2021/01/14 05:15:23;;;;;;;;;;;12.20;64.00;;;;;;2083192;28;1227;-52
2021/01/14 05:16:42;;;;;;;;;;;12.30;63.80;;;;;;2083079;28;1144;-53
2021/01/14 05:18:01;;;;;;;;;;;12.30;63.40;;;;;;2087110;28;1432;-52
2021/01/14 05:19:20;;;;;;;;;;;12.30;63.10;;;;;;2090422;28;1168;-54
2021/01/14 05:20:40;;;;;;;;;;;12.40;62.90;;;;;;2090368;28;1393;-53
2021/01/14 05:21:59;;;;;;;;;;;12.40;62.70;;;;;;2081452;28;1205;-54
2021/01/14 05:23:19;;;;;;;;;;;12.50;62.20;;;;;;2073596;28;1225;-53
2021/01/14 05:24:38;;;;;;;;;;;12.50;61.90;;;;;;2083667;28;1297;-53
2021/01/14 05:25:58;;;;;;;;;;;12.60;61.70;;;;;;2091060;28;1108;-54
2021/01/14 05:27:23;;;;;;;;;;;12.60;61.40;;;;;;2090776;28;1104;-53
2021/01/14 05:28:42;;;;;;;;;;;12.60;61.10;;;;;;2090800;28;954;-54
2021/01/14 05:30:08;;;;;;;;;;;12.70;60.90;;;;;;2081863;28;1441;-54
2021/01/14 05:31:27;;;;;;;;;;;12.70;60.60;;;;;;2078648;28;1376;-54
2021/01/14 05:32:46;;;;;;;;;;;12.80;60.40;;;;;;2092871;28;1151;-54
2021/01/14 05:34:05;;;;;;;;;;;12.80;60.10;;;;;;2095062;28;1297;-53
2021/01/14 05:35:28;;;;;;;;;;;12.90;60.00;;;;;;2081802;28;1338;-53
2021/01/14 05:36:50;;;;;;;;;;;12.90;59.80;;;;;;2084655;28;1157;-53
2021/01/14 05:38:09;;;;;;;;;;;13.00;59.60;;;;;;2090182;28;1233;-54
2021/01/14 05:39:29;;;;;;;;;;;13.00;59.50;;;;;;2082214;28;1477;-54
2021/01/14 05:42:26;;;;;;;;;;;13.10;59.20;;;;;;2089336;28;1414;-54
2021/01/14 05:43:48;;;;;;;;;;;13.20;59.10;;;;;;2075688;28;1366;-54
2021/01/14 05:45:22;;;;;;;;;;;13.20;58.80;;;;;;2077852;28;1244;-54
2021/01/14 05:46:41;;;;;;;;;;;13.30;58.80;;;;;;2096120;28;1525;-53
2021/01/14 05:48:08;;;;;;;;;;;13.30;58.60;;;;;;2093905;28;1235;-54
2021/01/14 05:49:27;;;;;;;;;;;13.40;58.50;;;;;;2084128;28;1390;-54
2021/01/14 05:50:46;;;;;;;;;;;13.40;58.30;;;;;;2095233;28;1514;-54
2021/01/14 05:52:05;;;;;;;;;;;13.40;58.20;;;;;;2084710;28;1338;-54
2021/01/14 05:53:25;;;;;;;;;;;13.50;58.00;;;;;;2073817;28;1152;-54
2021/01/14 05:54:44;;;;;;;;;;;13.60;57.90;;;;;;2088661;28;953;-54
2021/01/14 05:56:03;;;;;;;;;;;13.60;57.80;;;;;;2078142;28;1582;-54
2021/01/14 05:57:22;;;;;;;;;;;13.60;57.60;;;;;;2075207;28;1989;-54
2021/01/14 05:58:42;;;;;;;;;;;13.70;57.50;;;;;;2078785;28;1131;-54
2021/01/14 06:00:07;;;;;;;;;;;13.70;57.40;;;;;;2073226;28;1261;-52
2021/01/14 06:01:26;;;;;;;;;;;13.80;57.30;;;;;;2084566;28;1499;-52
2021/01/14 06:02:45;;;;;;;;;;;13.80;57.10;;;;;;2088192;28;1320;-54
2021/01/14 06:04:14;;;;;;;;;;;13.90;57.10;;;;;;2090695;28;1287;-55
2021/01/14 06:05:33;;;;;;;;;;;13.90;57.00;;;;;;2087187;28;1238;-54
2021/01/14 06:06:53;;;;;;;;;;;14.00;56.90;;;;;;2087454;28;836;-55
2021/01/14 06:08:17;;;;;;;;;;;14.00;56.80;;;;;;2089420;28;1109;-56
2021/01/14 06:09:44;;;;;;;;;;;14.10;56.90;;;;;;2075317;28;1069;-54
2021/01/14 06:11:03;;;;;;;;;;;14.20;56.90;;;;;;2076969;28;1446;-54
2021/01/14 06:12:22;;;;;;;;;;;14.30;56.60;;;;;;2070998;28;1211;-54
2021/01/14 06:13:42;;;;;;;;;;;14.30;56.50;;;;;;2078587;28;1463;-54
2021/01/14 06:15:02;;;;;;;;;;;14.30;56.40;;;;;;2086103;28;1261;-55
2021/01/14 06:16:21;;;;;;;;;;;14.40;56.90;;;;;;2081586;28;1394;-54
2021/01/14 06:17:40;;;;;;;;;;;14.40;56.70;;;;;;2086639;28;1910;-54
2021/01/14 06:19:06;;;;;;;;;;;14.40;56.20;;;;;;2082381;28;1265;-55
2021/01/14 06:20:25;;;;;;;;;;;14.40;56.10;;;;;;2086884;28;1180;-55
2021/01/14 06:21:47;;;;;;;;;;;14.40;56.10;;;;;;2077954;28;1162;-54
2021/01/14 06:23:06;;;;;;;;;;;14.40;56.10;;;;;;2087999;28;1409;-54
2021/01/14 06:24:26;;;;;;;;;;;14.40;56.70;;;;;;2082224;28;1169;-53
2021/01/14 06:25:46;;;;;;;;;;;14.40;56.20;;;;;;2090709;28;1307;-54
2021/01/14 06:27:06;;;;;;;;;;;14.30;56.20;;;;;;2092354;28;1205;-54
2021/01/14 06:28:34;;;;;;;;;;;14.30;56.40;;;;;;2089329;28;1146;-55
2021/01/14 06:29:59;;;;;;;;;;;14.30;56.40;;;;;;2080084;28;1057;-54
2021/01/14 06:31:24;;;;;;;;;;;14.30;56.60;;;;;;2087914;28;1388;-54
2021/01/14 06:32:43;;;;;;;;;;;14.20;56.70;;;;;;2084997;28;1306;-53
2021/01/14 06:34:02;;;;;;;;;;;14.20;57.40;;;;;;2078110;28;1407;-54
2021/01/14 06:35:21;;;;;;;;;;;14.20;57.50;;;;;;2078117;28;1510;-55
2021/01/14 06:36:41;;;;;;;;;;;14.20;57.00;;;;;;2076519;28;1346;-54
2021/01/14 06:38:03;;;;;;;;;;;14.20;57.10;;;;;;2080048;28;1588;-54
2021/01/14 06:39:22;;;;;;;;;;;14.20;57.20;;;;;;2081749;28;1322;-54
2021/01/14 06:40:41;;;;;;;;;;;14.20;57.20;;;;;;2081536;28;1392;-53
2021/01/14 06:42:01;;;;;;;;;;;14.20;57.20;;;;;;2083269;28;1426;-54
2021/01/14 06:43:20;;;;;;;;;;;14.20;57.20;;;;;;2096622;28;1230;-54
2021/01/14 06:44:39;;;;;;;;;;;14.20;57.10;;;;;;2084445;28;1171;-54
2021/01/14 06:45:58;;;;;;;;;;;14.30;57.20;;;;;;2081088;28;1171;-55
2021/01/14 06:47:30;;;;;;;;;;;14.30;57.10;;;;;;2082855;28;1398;-55
2021/01/14 06:49:00;;;;;;;;;;;14.30;57.00;;;;;;2086854;28;1195;-54
2021/01/14 06:50:20;;;;;;;;;;;14.30;56.90;;;;;;2081541;28;1419;-55
2021/01/14 06:51:43;;;;;;;;;;;14.40;56.80;;;;;;2081029;28;1298;-54
2021/01/14 06:53:09;;;;;;;;;;;14.40;56.80;;;;;;2090105;28;1060;-53
2021/01/14 06:54:28;;;;;;;;;;;14.40;56.70;;;;;;2082415;28;1293;-54
2021/01/14 06:55:47;;;;;;;;;;;14.40;56.80;;;;;;2084275;28;1336;-54
2021/01/14 06:57:14;;;;;;;;;;;14.40;56.80;;;;;;2090767;28;2052;-54
2021/01/14 06:58:33;;;;;;;;;;;14.40;56.80;;;;;;2091479;28;1352;-54
2021/01/14 06:59:53;;;;;;;;;;;14.40;56.80;;;;;;2071879;28;1203;-54
2021/01/14 07:01:12;;;;;;;;;;;14.40;56.80;;;;;;2084531;28;1599;-53
2021/01/14 07:02:34;;;;;;;;;;;14.40;56.80;;;;;;2080322;28;1282;-54
2021/01/14 07:03:57;;;;;;;;;;;14.50;56.90;;;;;;2084014;28;1284;-55
2021/01/14 07:05:19;;;;;;;;;;;14.50;56.90;;;;;;2092294;28;1393;-53
2021/01/14 07:06:38;;;;;;;;;;;14.50;56.90;;;;;;2083460;28;1262;-55
2021/01/14 07:08:09;;;;;;;;;;;14.50;56.90;;;;;;2094746;28;1409;-54
2021/01/14 07:09:29;;;;;;;;;;;14.40;56.80;;;;;;2081986;28;1411;-54
2021/01/14 07:11:11;;;;;;;;;;;14.40;56.90;;;;;;2092304;28;1364;-54
2021/01/14 07:12:31;;;;;;;;;;;14.40;56.90;;;;;;2090727;28;1144;-54
2021/01/14 07:13:51;;;;;;;;;;;14.40;57.00;;;;;;2089490;28;1271;-54
2021/01/14 07:15:11;;;;;;;;;;;14.40;57.10;;;;;;2085472;28;1230;-54
2021/01/14 07:16:31;;;;;;;;;;;14.40;57.10;;;;;;2087018;28;1272;-54
2021/01/14 07:17:50;;;;;;;;;;;14.40;57.20;;;;;;2088014;28;1887;-55
2021/01/14 07:19:09;;;;;;;;;;;14.30;57.20;;;;;;2083437;28;1380;-54
2021/01/14 07:20:28;;;;;;;;;;;14.30;57.30;;;;;;2072376;28;1326;-54
2021/01/14 07:21:48;;;;;;;;;;;14.30;57.40;;;;;;2090666;28;1463;-54
2021/01/14 07:23:07;;;;;;;;;;;14.30;57.50;;;;;;2085905;28;1226;-54
2021/01/14 07:24:27;;;;;;;;;;;14.30;57.50;;;;;;2080368;28;1320;-55
2021/01/14 07:25:47;;;;;;;;;;;14.30;57.60;;;;;;2078932;28;1160;-55
2021/01/14 07:27:07;;;;;;;;;;;14.30;57.70;;;;;;2088124;28;1213;-54
2021/01/14 07:28:27;;;;;;;;;;;14.20;57.80;;;;;;2091473;28;1282;-54
2021/01/14 07:29:46;;;;;;;;;;;14.20;57.90;;;;;;2078731;28;2084;-52
2021/01/14 07:31:21;;;;;;;;;;;14.20;58.50;;;;;;2082661;28;1503;-56
2021/01/14 07:33:04;;;;;;;;;;;14.20;58.00;;;;;;2082011;28;1273;-53
2021/01/14 07:34:23;;;;;;;;;;;14.10;56.20;;;;;;2091620;28;1344;-57
2021/01/14 07:35:42;;;;;;;;;;;13.80;54.90;;;;;;2090598;28;1285;-54
2021/01/14 07:37:02;;;;;;;;;;;13.70;54.20;;;;;;2090570;28;1969;-54
2021/01/14 07:38:21;;;;;;;;;;;13.60;53.50;;;;;;2082040;28;1397;-57
2021/01/14 07:39:56;;;;;;;;;;;13.60;53.90;;;;;;2071780;28;1392;-55
2021/01/14 07:41:15;;;;;;;;;;;13.60;53.30;;;;;;2077353;28;1532;-58
2021/01/14 07:42:34;;;;;;;;;;;13.60;53.20;;;;;;2085423;28;1265;-55
2021/01/14 07:43:53;;;;;;;;;;;13.70;53.80;;;;;;2081915;28;1070;-57
2021/01/14 07:45:13;;;;;;;;;;;13.60;53.40;;;;;;2090013;28;1355;-55
2021/01/14 07:46:33;;;;;;;;;;;13.50;51.80;;;;;;2091182;28;1337;-55
2021/01/14 07:47:52;;;;;;;;;;;13.30;51.20;;;;;;2078945;28;1623;-55
2021/01/14 07:49:25;;;;;;;;;;;13.30;51.20;;;;;;2083838;28;1394;-57
2021/01/14 07:50:51;;;;;;;;;;;13.30;50.60;;;;;;2090429;28;1593;-56
2021/01/14 07:52:10;;;;;;;;;;;13.40;50.40;;;;;;2088708;28;1284;-55
2021/01/14 07:53:29;;;;;;;;;;;13.40;50.00;;;;;;2078081;28;1348;-55
2021/01/14 07:55:18;;;;;;;;;;;13.40;49.90;;;;;;2078019;28;1242;-53
2021/01/14 07:56:52;;;;;;;;;;;13.50;50.00;;;;;;2082782;28;1295;-54
2021/01/14 07:58:20;;;;;;;;;;;13.50;49.80;;;;;;2081429;28;1301;-54